sensor_id;sensor_type;location;lat;lon;timestamp;pressure;altitude;pressure_sealevel;temperature;humidity
64872;BME280;51351;51.450;6.614;2023-12-20T00:00:54;101377.78;;;7.08;97.24
64872;BME280;51351;51.450;6.614;2023-12-20T00:03:19;101379.84;;;7.03;96.99
64872;BME280;51351;51.450;6.614;2023-12-20T00:05:45;101389.69;;;6.98;96.93
64872;BME280;51351;51.450;6.614;2023-12-20T00:08:11;101389.16;;;6.93;96.86
64872;BME280;51351;51.450;6.614;2023-12-20T00:10:36;101390.28;;;6.89;96.89
64872;BME280;51351;51.450;6.614;2023-12-20T00:13:02;101398.06;;;6.89;97.11
64872;BME280;51351;51.450;6.614;2023-12-20T00:15:27;101395.66;;;6.86;96.77
64872;BME280;51351;51.450;6.614;2023-12-20T00:17:53;101383.63;;;6.85;96.60
64872;BME280;51351;51.450;6.614;2023-12-20T00:20:18;101397.53;;;6.84;96.43
64872;BME280;51351;51.450;6.614;2023-12-20T00:22:44;101384.47;;;6.85;96.46
64872;BME280;51351;51.450;6.614;2023-12-20T00:25:09;101387.88;;;6.86;96.01
64872;BME280;51351;51.450;6.614;2023-12-20T00:27:35;101399.00;;;6.88;96.49
64872;BME280;51351;51.450;6.614;2023-12-20T00:30:00;101391.41;;;6.85;96.30
64872;BME280;51351;51.450;6.614;2023-12-20T00:32:26;101394.28;;;6.80;96.00
64872;BME280;51351;51.450;6.614;2023-12-20T00:34:51;101393.78;;;6.75;95.74
64872;BME280;51351;51.450;6.614;2023-12-20T00:37:17;101405.91;;;6.75;96.13
64872;BME280;51351;51.450;6.614;2023-12-20T00:39:42;101409.88;;;6.80;96.07
64872;BME280;51351;51.450;6.614;2023-12-20T00:42:08;101409.59;;;6.85;95.94
64872;BME280;51351;51.450;6.614;2023-12-20T00:44:33;101408.56;;;6.87;95.58
64872;BME280;51351;51.450;6.614;2023-12-20T00:46:59;101411.81;;;6.91;95.79
64872;BME280;51351;51.450;6.614;2023-12-20T00:49:24;101413.47;;;6.92;95.71
64872;BME280;51351;51.450;6.614;2023-12-20T00:51:49;101417.44;;;6.97;95.86
64872;BME280;51351;51.450;6.614;2023-12-20T00:54:16;101424.19;;;7.00;95.90
64872;BME280;51351;51.450;6.614;2023-12-20T00:56:41;101430.13;;;7.02;95.08
64872;BME280;51351;51.450;6.614;2023-12-20T00:59:07;101421.59;;;7.00;95.49
64872;BME280;51351;51.450;6.614;2023-12-20T01:01:32;101430.50;;;6.96;95.26
64872;BME280;51351;51.450;6.614;2023-12-20T01:03:58;101432.19;;;6.97;95.43
64872;BME280;51351;51.450;6.614;2023-12-20T01:06:24;101425.41;;;6.94;95.37
64872;BME280;51351;51.450;6.614;2023-12-20T01:08:49;101428.75;;;6.96;95.06
64872;BME280;51351;51.450;6.614;2023-12-20T01:11:15;101437.91;;;7.02;94.45
64872;BME280;51351;51.450;6.614;2023-12-20T01:13:40;101430.22;;;7.00;94.11
64872;BME280;51351;51.450;6.614;2023-12-20T01:16:06;101427.00;;;6.97;94.44
64872;BME280;51351;51.450;6.614;2023-12-20T01:18:31;101433.28;;;6.93;94.47
64872;BME280;51351;51.450;6.614;2023-12-20T01:21:02;101429.97;;;6.91;94.60
64872;BME280;51351;51.450;6.614;2023-12-20T01:23:28;101437.03;;;6.89;94.29
64872;BME280;51351;51.450;6.614;2023-12-20T01:25:53;101418.31;;;6.84;94.21
64872;BME280;51351;51.450;6.614;2023-12-20T01:28:19;101430.00;;;6.77;94.20
64872;BME280;51351;51.450;6.614;2023-12-20T01:30:44;101424.34;;;6.70;94.17
64872;BME280;51351;51.450;6.614;2023-12-20T01:33:10;101441.88;;;6.67;93.95
64872;BME280;51351;51.450;6.614;2023-12-20T01:35:35;101430.13;;;6.61;93.85
64872;BME280;51351;51.450;6.614;2023-12-20T01:38:01;101439.88;;;6.58;93.83
64872;BME280;51351;51.450;6.614;2023-12-20T01:40:27;101444.50;;;6.53;93.52
64872;BME280;51351;51.450;6.614;2023-12-20T01:42:59;101439.47;;;6.50;94.01
64872;BME280;51351;51.450;6.614;2023-12-20T01:45:25;101438.78;;;6.48;94.26
64872;BME280;51351;51.450;6.614;2023-12-20T01:47:51;101437.38;;;6.42;94.42
64872;BME280;51351;51.450;6.614;2023-12-20T01:50:17;101433.38;;;6.37;94.34
64872;BME280;51351;51.450;6.614;2023-12-20T01:52:43;101437.28;;;6.30;94.67
64872;BME280;51351;51.450;6.614;2023-12-20T01:55:09;101431.72;;;6.22;94.88
64872;BME280;51351;51.450;6.614;2023-12-20T01:57:41;101442.47;;;6.16;94.72
64872;BME280;51351;51.450;6.614;2023-12-20T02:00:09;101450.34;;;6.14;95.12
64872;BME280;51351;51.450;6.614;2023-12-20T02:02:36;101444.31;;;6.14;95.07
64872;BME280;51351;51.450;6.614;2023-12-20T02:05:05;101443.56;;;6.12;95.37
64872;BME280;51351;51.450;6.614;2023-12-20T02:07:31;101434.22;;;6.09;95.32
64872;BME280;51351;51.450;6.614;2023-12-20T02:09:56;101430.69;;;6.10;95.30
64872;BME280;51351;51.450;6.614;2023-12-20T02:12:22;101430.69;;;6.10;95.51
64872;BME280;51351;51.450;6.614;2023-12-20T02:14:48;101428.56;;;6.03;95.56
64872;BME280;51351;51.450;6.614;2023-12-20T02:17:13;101431.41;;;5.98;95.35
64872;BME280;51351;51.450;6.614;2023-12-20T02:19:39;101424.84;;;5.93;95.24
64872;BME280;51351;51.450;6.614;2023-12-20T02:22:13;101434.56;;;5.89;95.38
64872;BME280;51351;51.450;6.614;2023-12-20T02:24:39;101446.97;;;5.84;95.52
64872;BME280;51351;51.450;6.614;2023-12-20T02:27:08;101442.00;;;5.80;95.80
64872;BME280;51351;51.450;6.614;2023-12-20T02:29:34;101450.03;;;5.75;95.50
64872;BME280;51351;51.450;6.614;2023-12-20T02:32:00;101440.03;;;5.69;95.66
64872;BME280;51351;51.450;6.614;2023-12-20T02:34:26;101436.78;;;5.66;95.56
64872;BME280;51351;51.450;6.614;2023-12-20T02:36:51;101428.44;;;5.61;95.47
64872;BME280;51351;51.450;6.614;2023-12-20T02:39:18;101444.06;;;5.59;95.16
64872;BME280;51351;51.450;6.614;2023-12-20T02:41:44;101439.91;;;5.57;95.47
64872;BME280;51351;51.450;6.614;2023-12-20T02:44:09;101455.53;;;5.55;95.54
64872;BME280;51351;51.450;6.614;2023-12-20T02:46:35;101440.94;;;5.54;95.12
64872;BME280;51351;51.450;6.614;2023-12-20T02:49:00;101445.34;;;5.52;95.44
64872;BME280;51351;51.450;6.614;2023-12-20T02:51:26;101444.72;;;5.49;95.49
64872;BME280;51351;51.450;6.614;2023-12-20T02:53:51;101450.06;;;5.46;95.34
64872;BME280;51351;51.450;6.614;2023-12-20T02:56:17;101446.53;;;5.47;95.42
64872;BME280;51351;51.450;6.614;2023-12-20T02:58:42;101440.34;;;5.49;95.66
64872;BME280;51351;51.450;6.614;2023-12-20T03:01:08;101449.72;;;5.52;95.71
64872;BME280;51351;51.450;6.614;2023-12-20T03:03:34;101444.28;;;5.56;95.53
64872;BME280;51351;51.450;6.614;2023-12-20T03:05:59;101433.78;;;5.58;95.50
64872;BME280;51351;51.450;6.614;2023-12-20T03:08:25;101443.91;;;5.62;95.43
64872;BME280;51351;51.450;6.614;2023-12-20T03:10:51;101436.97;;;5.63;95.22
64872;BME280;51351;51.450;6.614;2023-12-20T03:13:16;101441.91;;;5.67;95.45
64872;BME280;51351;51.450;6.614;2023-12-20T03:15:42;101431.44;;;5.69;95.45
64872;BME280;51351;51.450;6.614;2023-12-20T03:18:07;101431.53;;;5.67;95.66
64872;BME280;51351;51.450;6.614;2023-12-20T03:20:33;101439.38;;;5.66;95.36
64872;BME280;51351;51.450;6.614;2023-12-20T03:23:02;101432.53;;;5.65;95.37
64872;BME280;51351;51.450;6.614;2023-12-20T03:25:28;101429.03;;;5.66;95.57
64872;BME280;51351;51.450;6.614;2023-12-20T03:27:53;101429.03;;;5.66;95.75
64872;BME280;51351;51.450;6.614;2023-12-20T03:30:19;101438.63;;;5.64;95.25
64872;BME280;51351;51.450;6.614;2023-12-20T03:32:45;101425.75;;;5.62;95.47
64872;BME280;51351;51.450;6.614;2023-12-20T03:35:11;101436.31;;;5.59;95.60
64872;BME280;51351;51.450;6.614;2023-12-20T03:37:36;101436.50;;;5.56;95.23
64872;BME280;51351;51.450;6.614;2023-12-20T03:40:02;101429.63;;;5.55;95.56
64872;BME280;51351;51.450;6.614;2023-12-20T03:42:28;101431.50;;;5.53;95.22
64872;BME280;51351;51.450;6.614;2023-12-20T03:44:53;101425.72;;;5.48;95.26
64872;BME280;51351;51.450;6.614;2023-12-20T03:47:19;101418.97;;;5.46;95.45
64872;BME280;51351;51.450;6.614;2023-12-20T03:49:44;101416.72;;;5.40;95.17
64872;BME280;51351;51.450;6.614;2023-12-20T03:52:10;101401.53;;;5.34;95.26
64872;BME280;51351;51.450;6.614;2023-12-20T03:54:35;101411.06;;;5.33;95.22
64872;BME280;51351;51.450;6.614;2023-12-20T03:57:01;101416.44;;;5.30;95.08
64872;BME280;51351;51.450;6.614;2023-12-20T03:59:27;101409.66;;;5.28;95.39
64872;BME280;51351;51.450;6.614;2023-12-20T04:01:52;101416.69;;;5.26;95.32
64872;BME280;51351;51.450;6.614;2023-12-20T04:04:18;101420.94;;;5.27;95.03
64872;BME280;51351;51.450;6.614;2023-12-20T04:06:44;101410.41;;;5.30;95.24
64872;BME280;51351;51.450;6.614;2023-12-20T04:09:09;101417.16;;;5.32;95.35
64872;BME280;51351;51.450;6.614;2023-12-20T04:11:35;101414.47;;;5.34;95.34
64872;BME280;51351;51.450;6.614;2023-12-20T04:14:00;101415.31;;;5.34;95.28
64872;BME280;51351;51.450;6.614;2023-12-20T04:16:26;101414.31;;;5.37;95.53
64872;BME280;51351;51.450;6.614;2023-12-20T04:18:51;101412.56;;;5.37;95.54
64872;BME280;51351;51.450;6.614;2023-12-20T04:21:17;101414.31;;;5.37;95.56
64872;BME280;51351;51.450;6.614;2023-12-20T04:23:43;101410.78;;;5.38;95.73
64872;BME280;51351;51.450;6.614;2023-12-20T04:26:09;101415.97;;;5.38;95.80
64872;BME280;51351;51.450;6.614;2023-12-20T04:28:34;101419.50;;;5.37;95.63
64872;BME280;51351;51.450;6.614;2023-12-20T04:31:00;101424.94;;;5.32;95.51
64872;BME280;51351;51.450;6.614;2023-12-20T04:33:25;101429.47;;;5.29;95.73
64872;BME280;51351;51.450;6.614;2023-12-20T04:35:50;101418.34;;;5.27;95.49
64872;BME280;51351;51.450;6.614;2023-12-20T04:38:16;101424.19;;;5.30;95.64
64872;BME280;51351;51.450;6.614;2023-12-20T04:40:42;101422.50;;;5.29;95.70
64872;BME280;51351;51.450;6.614;2023-12-20T04:43:07;101431.13;;;5.30;95.59
64872;BME280;51351;51.450;6.614;2023-12-20T04:45:34;101427.03;;;5.26;95.28
64872;BME280;51351;51.450;6.614;2023-12-20T04:48:00;101426.28;;;5.24;95.30
64872;BME280;51351;51.450;6.614;2023-12-20T04:50:26;101440.34;;;5.20;95.29
64872;BME280;51351;51.450;6.614;2023-12-20T04:52:51;101426.91;;;5.13;95.38
64872;BME280;51351;51.450;6.614;2023-12-20T04:55:17;101428.81;;;5.10;95.41
64872;BME280;51351;51.450;6.614;2023-12-20T04:57:43;101424.75;;;5.06;95.56
64872;BME280;51351;51.450;6.614;2023-12-20T05:00:09;101416.28;;;5.02;95.60
64872;BME280;51351;51.450;6.614;2023-12-20T05:02:37;101429.41;;;4.99;95.52
64872;BME280;51351;51.450;6.614;2023-12-20T05:05:03;101428.59;;;4.98;95.55
64872;BME280;51351;51.450;6.614;2023-12-20T05:07:29;101429.16;;;5.03;95.71
64872;BME280;51351;51.450;6.614;2023-12-20T05:09:54;101431.56;;;5.07;95.90
64872;BME280;51351;51.450;6.614;2023-12-20T05:12:19;101430.56;;;5.09;96.03
64872;BME280;51351;51.450;6.614;2023-12-20T05:14:46;101429.50;;;5.13;96.10
64872;BME280;51351;51.450;6.614;2023-12-20T05:17:12;101430.13;;;5.17;96.07
64872;BME280;51351;51.450;6.614;2023-12-20T05:19:37;101430.91;;;5.19;96.17
64872;BME280;51351;51.450;6.614;2023-12-20T05:22:03;101427.28;;;5.21;96.08
64872;BME280;51351;51.450;6.614;2023-12-20T05:24:28;101418.44;;;5.25;96.07
64872;BME280;51351;51.450;6.614;2023-12-20T05:26:54;101426.03;;;5.28;95.97
64872;BME280;51351;51.450;6.614;2023-12-20T05:29:20;101425.94;;;5.30;96.05
64872;BME280;51351;51.450;6.614;2023-12-20T05:31:45;101411.06;;;5.33;95.68
64872;BME280;51351;51.450;6.614;2023-12-20T05:34:11;101414.41;;;5.35;95.57
64872;BME280;51351;51.450;6.614;2023-12-20T05:36:36;101400.50;;;5.36;95.68
64872;BME280;51351;51.450;6.614;2023-12-20T05:39:02;101402.28;;;5.36;95.38
64872;BME280;51351;51.450;6.614;2023-12-20T05:41:33;101402.19;;;5.37;95.53
64872;BME280;51351;51.450;6.614;2023-12-20T05:43:59;101413.38;;;5.38;95.34
64872;BME280;51351;51.450;6.614;2023-12-20T05:46:24;101415.97;;;5.38;95.40
64872;BME280;51351;51.450;6.614;2023-12-20T05:48:50;101399.53;;;5.39;95.24
64872;BME280;51351;51.450;6.614;2023-12-20T05:51:17;101406.38;;;5.40;95.35
64872;BME280;51351;51.450;6.614;2023-12-20T05:53:42;101408.88;;;5.41;95.50
64872;BME280;51351;51.450;6.614;2023-12-20T05:56:09;101398.50;;;5.41;95.59
64872;BME280;51351;51.450;6.614;2023-12-20T05:58:34;101401.84;;;5.43;95.58
64872;BME280;51351;51.450;6.614;2023-12-20T06:01:00;101403.59;;;5.43;95.40
64872;BME280;51351;51.450;6.614;2023-12-20T06:03:26;101396.69;;;5.43;95.54
64872;BME280;51351;51.450;6.614;2023-12-20T06:05:51;101397.50;;;5.44;95.42
64872;BME280;51351;51.450;6.614;2023-12-20T06:08:17;101392.97;;;5.47;95.38
64872;BME280;51351;51.450;6.614;2023-12-20T06:10:42;101399.72;;;5.50;95.02
64872;BME280;51351;51.450;6.614;2023-12-20T06:13:08;101413.53;;;5.50;95.41
64872;BME280;51351;51.450;6.614;2023-12-20T06:15:33;101416.13;;;5.50;95.35
64872;BME280;51351;51.450;6.614;2023-12-20T06:17:59;101419.53;;;5.51;95.39
64872;BME280;51351;51.450;6.614;2023-12-20T06:20:24;101419.53;;;5.51;95.09
64872;BME280;51351;51.450;6.614;2023-12-20T06:22:50;101425.38;;;5.54;94.79
64872;BME280;51351;51.450;6.614;2023-12-20T06:25:16;101430.31;;;5.59;94.76
64872;BME280;51351;51.450;6.614;2023-12-20T06:27:42;101424.09;;;5.61;94.73
64872;BME280;51351;51.450;6.614;2023-12-20T06:30:07;101421.50;;;5.61;94.78
64872;BME280;51351;51.450;6.614;2023-12-20T06:32:34;101429.97;;;5.65;95.01
64872;BME280;51351;51.450;6.614;2023-12-20T06:35:00;101422.19;;;5.65;94.71
64872;BME280;51351;51.450;6.614;2023-12-20T06:37:26;101415.97;;;5.67;94.55
64872;BME280;51351;51.450;6.614;2023-12-20T06:39:51;101414.09;;;5.69;94.55
64872;BME280;51351;51.450;6.614;2023-12-20T06:42:17;101414.03;;;5.71;94.38
64872;BME280;51351;51.450;6.614;2023-12-20T06:44:42;101421.53;;;5.75;94.34
64872;BME280;51351;51.450;6.614;2023-12-20T06:47:08;101423.22;;;5.76;93.94
64872;BME280;51351;51.450;6.614;2023-12-20T06:49:33;101417.09;;;5.77;94.16
64872;BME280;51351;51.450;6.614;2023-12-20T06:51:59;101404.88;;;5.79;94.08
64872;BME280;51351;51.450;6.614;2023-12-20T06:54:24;101403.91;;;5.82;94.14
64872;BME280;51351;51.450;6.614;2023-12-20T06:56:50;101406.41;;;5.83;94.21
64872;BME280;51351;51.450;6.614;2023-12-20T06:59:15;101403.81;;;5.83;93.74
64872;BME280;51351;51.450;6.614;2023-12-20T07:01:41;101401.97;;;5.85;93.52
64872;BME280;51351;51.450;6.614;2023-12-20T07:04:06;101403.47;;;5.89;93.98
64872;BME280;51351;51.450;6.614;2023-12-20T07:06:32;101397.34;;;5.90;93.58
64872;BME280;51351;51.450;6.614;2023-12-20T07:08:57;101411.97;;;5.91;93.35
64872;BME280;51351;51.450;6.614;2023-12-20T07:11:23;101403.91;;;5.96;93.00
64872;BME280;51351;51.450;6.614;2023-12-20T07:13:49;101405.59;;;5.97;93.13
64872;BME280;51351;51.450;6.614;2023-12-20T07:16:15;101406.34;;;5.99;93.16
64872;BME280;51351;51.450;6.614;2023-12-20T07:18:40;101409.66;;;6.01;93.12
64872;BME280;51351;51.450;6.614;2023-12-20T07:21:06;101402.00;;;5.99;92.71
64872;BME280;51351;51.450;6.614;2023-12-20T07:23:33;101405.31;;;6.01;92.58
64872;BME280;51351;51.450;6.614;2023-12-20T07:25:58;101406.97;;;6.02;93.02
64872;BME280;51351;51.450;6.614;2023-12-20T07:28:24;101403.47;;;6.03;92.71
64872;BME280;51351;51.450;6.614;2023-12-20T07:30:50;101403.19;;;6.08;92.59
64872;BME280;51351;51.450;6.614;2023-12-20T07:33:15;101408.38;;;6.08;92.46
64872;BME280;51351;51.450;6.614;2023-12-20T07:35:41;101409.28;;;6.07;92.42
64872;BME280;51351;51.450;6.614;2023-12-20T07:38:07;101408.38;;;6.08;92.51
64872;BME280;51351;51.450;6.614;2023-12-20T07:40:32;101405.69;;;6.09;92.53
64872;BME280;51351;51.450;6.614;2023-12-20T07:42:58;101408.94;;;6.13;92.45
64872;BME280;51351;51.450;6.614;2023-12-20T07:45:23;101408.94;;;6.13;92.26
64872;BME280;51351;51.450;6.614;2023-12-20T07:47:49;101411.25;;;6.17;92.28
64872;BME280;51351;51.450;6.614;2023-12-20T07:50:15;101409.50;;;6.18;91.50
64872;BME280;51351;51.450;6.614;2023-12-20T07:52:41;101413.75;;;6.19;91.76
64872;BME280;51351;51.450;6.614;2023-12-20T07:55:06;101414.38;;;6.22;91.61
64872;BME280;51351;51.450;6.614;2023-12-20T07:57:32;101413.56;;;6.22;91.00
64872;BME280;51351;51.450;6.614;2023-12-20T07:59:58;101410.78;;;6.25;91.51
64872;BME280;51351;51.450;6.614;2023-12-20T08:02:23;101402.16;;;6.24;90.95
64872;BME280;51351;51.450;6.614;2023-12-20T08:04:49;101407.06;;;6.29;91.64
64872;BME280;51351;51.450;6.614;2023-12-20T08:07:14;101404.56;;;6.27;91.19
64872;BME280;51351;51.450;6.614;2023-12-20T08:09:40;101410.59;;;6.28;90.88
64872;BME280;51351;51.450;6.614;2023-12-20T08:12:05;101415.78;;;6.28;91.01
64872;BME280;51351;51.450;6.614;2023-12-20T08:14:31;101410.59;;;6.28;91.15
64872;BME280;51351;51.450;6.614;2023-12-20T08:16:57;101414.09;;;6.27;90.62
64872;BME280;51351;51.450;6.614;2023-12-20T08:19:22;101409.66;;;6.29;90.96
64872;BME280;51351;51.450;6.614;2023-12-20T08:21:48;101408.81;;;6.28;89.84
64872;BME280;51351;51.450;6.614;2023-12-20T08:24:13;101420.06;;;6.29;90.10
64872;BME280;51351;51.450;6.614;2023-12-20T08:26:39;101430.16;;;6.33;89.46
64872;BME280;51351;51.450;6.614;2023-12-20T08:29:04;101429.22;;;6.34;89.87
64872;BME280;51351;51.450;6.614;2023-12-20T08:31:30;101430.06;;;6.35;90.36
64872;BME280;51351;51.450;6.614;2023-12-20T08:33:58;101423.09;;;6.35;90.39
64872;BME280;51351;51.450;6.614;2023-12-20T08:36:23;101434.31;;;6.36;89.94
64872;BME280;51351;51.450;6.614;2023-12-20T08:38:49;101437.66;;;6.38;89.80
64872;BME280;51351;51.450;6.614;2023-12-20T08:41:16;101434.13;;;6.39;88.98
64872;BME280;51351;51.450;6.614;2023-12-20T08:43:42;101420.88;;;6.43;90.02
64872;BME280;51351;51.450;6.614;2023-12-20T08:46:08;101419.31;;;6.41;89.63
64872;BME280;51351;51.450;6.614;2023-12-20T08:48:37;101430.59;;;6.40;89.03
64872;BME280;51351;51.450;6.614;2023-12-20T08:51:03;101433.94;;;6.42;89.93
64872;BME280;51351;51.450;6.614;2023-12-20T08:53:29;101436.44;;;6.43;89.93
64872;BME280;51351;51.450;6.614;2023-12-20T08:55:54;101444.22;;;6.43;89.73
64872;BME280;51351;51.450;6.614;2023-12-20T08:58:20;101435.59;;;6.43;89.39
64872;BME280;51351;51.450;6.614;2023-12-20T09:00:45;101433.94;;;6.42;89.18
64872;BME280;51351;51.450;6.614;2023-12-20T09:03:11;101419.31;;;6.41;89.86
64872;BME280;51351;51.450;6.614;2023-12-20T09:05:36;101417.72;;;6.38;89.48
64872;BME280;51351;51.450;6.614;2023-12-20T09:08:02;101421.25;;;6.37;90.00
64872;BME280;51351;51.450;6.614;2023-12-20T09:10:28;101417.91;;;6.35;89.57
64872;BME280;51351;51.450;6.614;2023-12-20T09:12:54;101417.19;;;6.33;89.47
64872;BME280;51351;51.450;6.614;2023-12-20T09:15:23;101417.19;;;6.33;90.04
64872;BME280;51351;51.450;6.614;2023-12-20T09:17:49;101408.66;;;6.31;89.67
64872;BME280;51351;51.450;6.614;2023-12-20T09:20:15;101409.50;;;6.32;89.50
64872;BME280;51351;51.450;6.614;2023-12-20T09:22:40;101399.75;;;6.35;89.84
64872;BME280;51351;51.450;6.614;2023-12-20T09:25:07;101409.31;;;6.35;89.67
64872;BME280;51351;51.450;6.614;2023-12-20T09:27:33;101400.41;;;6.39;89.82
64872;BME280;51351;51.450;6.614;2023-12-20T09:29:58;101389.00;;;6.41;89.80
64872;BME280;51351;51.450;6.614;2023-12-20T09:32:24;101395.88;;;6.42;89.44
64872;BME280;51351;51.450;6.614;2023-12-20T09:34:49;101403.56;;;6.44;89.88
64872;BME280;51351;51.450;6.614;2023-12-20T09:37:15;101406.88;;;6.46;89.83
64872;BME280;51351;51.450;6.614;2023-12-20T09:39:40;101418.00;;;6.48;89.86
64872;BME280;51351;51.450;6.614;2023-12-20T09:42:06;101411.03;;;6.48;89.74
64872;BME280;51351;51.450;6.614;2023-12-20T09:44:33;101417.81;;;6.51;89.71
64872;BME280;51351;51.450;6.614;2023-12-20T09:47:05;101412.63;;;6.51;89.19
64872;BME280;51351;51.450;6.614;2023-12-20T09:49:32;101406.41;;;6.53;88.87
64872;BME280;51351;51.450;6.614;2023-12-20T09:51:59;101413.25;;;6.54;89.29
64872;BME280;51351;51.450;6.614;2023-12-20T09:54:27;101413.06;;;6.57;89.36
64872;BME280;51351;51.450;6.614;2023-12-20T09:56:53;101423.44;;;6.57;88.64
64872;BME280;51351;51.450;6.614;2023-12-20T09:59:19;101407.41;;;6.65;89.26
64872;BME280;51351;51.450;6.614;2023-12-20T10:01:44;101401.00;;;6.70;89.74
64872;BME280;51351;51.450;6.614;2023-12-20T10:04:12;101398.97;;;6.75;89.08
64872;BME280;51351;51.450;6.614;2023-12-20T10:06:39;101396.97;;;6.79;88.37
64872;BME280;51351;51.450;6.614;2023-12-20T10:09:05;101400.84;;;6.86;89.25
64872;BME280;51351;51.450;6.614;2023-12-20T10:11:31;101405.97;;;6.87;89.07
64872;BME280;51351;51.450;6.614;2023-12-20T10:13:59;101399.63;;;6.91;88.67
64872;BME280;51351;51.450;6.614;2023-12-20T10:16:28;101407.78;;;6.99;88.74
64872;BME280;51351;51.450;6.614;2023-12-20T10:18:54;101393.00;;;7.00;87.99
64872;BME280;51351;51.450;6.614;2023-12-20T10:21:20;101394.69;;;7.01;86.66
64872;BME280;51351;51.450;6.614;2023-12-20T10:23:46;101385.88;;;7.03;87.66
64872;BME280;51351;51.450;6.614;2023-12-20T10:26:27;101392.72;;;7.04;87.39
64872;BME280;51351;51.450;6.614;2023-12-20T10:28:54;101391.72;;;7.07;87.20
64872;BME280;51351;51.450;6.614;2023-12-20T10:31:30;101392.34;;;7.10;87.42
64872;BME280;51351;51.450;6.614;2023-12-20T10:34:02;101389.03;;;7.08;87.58
64872;BME280;51351;51.450;6.614;2023-12-20T10:36:30;101376.03;;;7.08;86.72
64872;BME280;51351;51.450;6.614;2023-12-20T10:38:56;101375.00;;;7.11;87.31
64872;BME280;51351;51.450;6.614;2023-12-20T10:41:27;101369.69;;;7.12;86.82
64872;BME280;51351;51.450;6.614;2023-12-20T10:43:59;101374.50;;;7.18;87.11
64872;BME280;51351;51.450;6.614;2023-12-20T10:46:26;101358.38;;;7.26;87.02
64872;BME280;51351;51.450;6.614;2023-12-20T10:48:56;101362.34;;;7.31;86.75
64872;BME280;51351;51.450;6.614;2023-12-20T10:51:22;101363.84;;;7.35;86.08
64872;BME280;51351;51.450;6.614;2023-12-20T10:53:49;101357.78;;;7.35;86.00
64872;BME280;51351;51.450;6.614;2023-12-20T10:56:17;101373.97;;;7.26;85.95
64872;BME280;51351;51.450;6.614;2023-12-20T10:58:50;101378.66;;;7.21;86.36
64872;BME280;51351;51.450;6.614;2023-12-20T11:01:19;101385.09;;;7.15;86.65
64872;BME280;51351;51.450;6.614;2023-12-20T11:03:50;101387.88;;;7.12;86.56
64872;BME280;51351;51.450;6.614;2023-12-20T11:06:49;101379.91;;;7.15;87.19
64872;BME280;51351;51.450;6.614;2023-12-20T11:09:14;101369.22;;;7.20;87.31
64872;BME280;51351;51.450;6.614;2023-12-20T11:14:50;101360.84;;;7.42;86.03
64872;BME280;51351;51.450;6.614;2023-12-20T11:17:16;101350.94;;;7.59;86.51
64872;BME280;51351;51.450;6.614;2023-12-20T11:22:27;101357.22;;;7.82;85.86
64872;BME280;51351;51.450;6.614;2023-12-20T11:25:02;101342.75;;;7.78;84.77
64872;BME280;51351;51.450;6.614;2023-12-20T11:27:30;101337.22;;;7.82;85.28
64872;BME280;51351;51.450;6.614;2023-12-20T11:29:56;101335.03;;;7.76;84.22
64872;BME280;51351;51.450;6.614;2023-12-20T11:37:35;101347.63;;;7.70;85.63
64872;BME280;51351;51.450;6.614;2023-12-20T11:40:11;101347.09;;;7.65;84.86
64872;BME280;51351;51.450;6.614;2023-12-20T11:42:40;101340.56;;;7.59;85.41
64872;BME280;51351;51.450;6.614;2023-12-20T11:45:24;101353.25;;;7.51;85.61
64872;BME280;51351;51.450;6.614;2023-12-20T11:47:51;101331.09;;;7.46;86.10
64872;BME280;51351;51.450;6.614;2023-12-20T11:50:17;101322.66;;;7.42;86.14
64872;BME280;51351;51.450;6.614;2023-12-20T11:52:42;101325.38;;;7.40;86.36
64872;BME280;51351;51.450;6.614;2023-12-20T11:55:08;101327.97;;;7.40;86.58
64872;BME280;51351;51.450;6.614;2023-12-20T11:57:33;101326.00;;;7.44;86.35
64872;BME280;51351;51.450;6.614;2023-12-20T11:59:59;101320.59;;;7.47;86.59
64872;BME280;51351;51.450;6.614;2023-12-20T12:02:25;101321.31;;;7.49;86.42
64872;BME280;51351;51.450;6.614;2023-12-20T12:04:50;101320.28;;;7.52;86.00
64872;BME280;51351;51.450;6.614;2023-12-20T12:07:17;101321.84;;;7.54;86.33
64872;BME280;51351;51.450;6.614;2023-12-20T12:09:43;101326.09;;;7.55;85.99
64872;BME280;51351;51.450;6.614;2023-12-20T12:12:09;101313.84;;;7.57;86.17
64872;BME280;51351;51.450;6.614;2023-12-20T12:14:35;101313.94;;;7.56;86.00
64872;BME280;51351;51.450;6.614;2023-12-20T12:17:02;101304.47;;;7.55;85.91
64872;BME280;51351;51.450;6.614;2023-12-20T12:19:29;101307.59;;;7.60;86.25
64872;BME280;51351;51.450;6.614;2023-12-20T12:22:05;101315.91;;;7.65;86.12
64872;BME280;51351;51.450;6.614;2023-12-20T12:24:32;101313.00;;;7.69;86.20
64872;BME280;51351;51.450;6.614;2023-12-20T12:26:58;101313.63;;;7.73;85.89
64872;BME280;51351;51.450;6.614;2023-12-20T12:29:24;101311.25;;;7.70;85.74
64872;BME280;51351;51.450;6.614;2023-12-20T12:31:50;101317.59;;;7.66;86.06
64872;BME280;51351;51.450;6.614;2023-12-20T12:34:17;101310.00;;;7.63;86.21
64872;BME280;51351;51.450;6.614;2023-12-20T12:36:43;101300.66;;;7.60;86.10
64872;BME280;51351;51.450;6.614;2023-12-20T12:39:11;101290.66;;;7.54;86.07
64872;BME280;51351;51.450;6.614;2023-12-20T12:41:37;101292.50;;;7.52;85.90
64872;BME280;51351;51.450;6.614;2023-12-20T12:44:02;101288.66;;;7.45;86.38
64872;BME280;51351;51.450;6.614;2023-12-20T12:46:28;101278.59;;;7.40;86.37
64872;BME280;51351;51.450;6.614;2023-12-20T12:48:53;101273.59;;;7.37;86.78
64872;BME280;51351;51.450;6.614;2023-12-20T12:51:19;101284.09;;;7.36;87.29
64872;BME280;51351;51.450;6.614;2023-12-20T12:53:44;101275.59;;;7.34;86.97
64872;BME280;51351;51.450;6.614;2023-12-20T12:56:12;101286.88;;;7.33;86.95
64872;BME280;51351;51.450;6.614;2023-12-20T12:58:38;101286.06;;;7.32;87.09
64872;BME280;51351;51.450;6.614;2023-12-20T13:01:04;101281.78;;;7.31;87.65
64872;BME280;51351;51.450;6.614;2023-12-20T13:03:29;101284.63;;;7.28;87.57
64872;BME280;51351;51.450;6.614;2023-12-20T13:05:55;101285.75;;;7.24;87.93